createdAt,value
2022-10-18T00:01:07.929Z,24.47
2022-10-18T00:03:19.201Z,24.41
2022-10-18T00:05:25.388Z,24.37
2022-10-18T00:07:31.886Z,24.35
2022-10-18T00:09:38.189Z,24.33
2022-10-18T00:11:44.448Z,24.30
2022-10-18T00:13:50.619Z,24.24
2022-10-18T00:16:00.201Z,24.18
2022-10-18T00:18:06.830Z,24.11
2022-10-18T00:20:13.837Z,24.06
2022-10-18T00:22:20.045Z,24.02
2022-10-18T00:24:26.339Z,23.97
2022-10-18T00:26:33.292Z,23.92
2022-10-18T00:28:40.707Z,23.87
2022-10-18T00:30:47.238Z,23.79
2022-10-18T00:32:54.047Z,23.73
2022-10-18T00:35:00.488Z,23.69
2022-10-18T00:37:06.976Z,23.61
2022-10-18T00:39:18.454Z,23.54
2022-10-18T00:41:28.544Z,23.50
2022-10-18T00:43:51.860Z,23.49
2022-10-18T00:45:58.190Z,23.52
2022-10-18T00:48:06.842Z,23.59
2022-10-18T00:50:13.966Z,23.69
2022-10-18T00:52:43.569Z,23.83
2022-10-18T00:54:51.522Z,23.95
2022-10-18T00:56:58.614Z,24.03
2022-10-18T00:59:05.052Z,24.10
2022-10-18T01:01:11.199Z,24.10
2022-10-18T01:03:17.563Z,24.08
2022-10-18T01:05:23.634Z,24.01
2022-10-18T01:07:52.092Z,23.92
2022-10-18T01:10:16.516Z,23.81
2022-10-18T01:12:26.243Z,23.68
2022-10-18T01:14:56.583Z,23.55
2022-10-18T01:17:06.074Z,23.41
2022-10-18T01:19:20.769Z,23.30
2022-10-18T01:21:55.097Z,23.19
2022-10-18T01:24:16.497Z,23.09
2022-10-18T01:26:25.197Z,22.97
2022-10-18T01:28:58.985Z,22.85
2022-10-18T01:31:13.798Z,22.72
2022-10-18T01:33:27.835Z,22.61
2022-10-18T01:35:37.861Z,22.51
2022-10-18T01:37:47.917Z,22.43
2022-10-18T01:39:58.173Z,22.32
2022-10-18T01:42:10.524Z,22.23
2022-10-18T01:44:22.341Z,22.16
2022-10-18T01:46:31.526Z,22.09
2022-10-18T01:48:39.475Z,22.02
2022-10-18T01:50:46.284Z,21.95
2022-10-18T01:52:53.314Z,21.89
2022-10-18T01:55:02.226Z,21.83
2022-10-18T01:57:34.997Z,21.76
2022-10-18T02:00:03.543Z,21.68
2022-10-18T02:02:55.042Z,21.59
2022-10-18T02:05:21.265Z,21.51
2022-10-18T02:07:51.896Z,21.43
2022-10-18T02:10:19.562Z,21.34
2022-10-18T02:12:27.328Z,21.26
2022-10-18T02:14:34.888Z,21.19
2022-10-18T02:16:46.885Z,21.11
2022-10-18T02:19:12.044Z,21.02
2022-10-18T02:21:21.228Z,20.95
2022-10-18T02:23:27.975Z,20.89
2022-10-18T02:25:36.503Z,20.83
2022-10-18T02:27:42.867Z,20.77
2022-10-18T02:29:50.542Z,20.71
2022-10-18T02:32:13.037Z,20.64
2022-10-18T02:34:30.518Z,20.57
2022-10-18T02:36:48.251Z,20.50
2022-10-18T02:39:04.233Z,20.44
2022-10-18T02:41:10.699Z,20.37
2022-10-18T02:43:17.089Z,20.32
2022-10-18T02:45:24.037Z,20.27
2022-10-18T02:47:30.908Z,20.22
2022-10-18T02:49:37.550Z,20.17
2022-10-18T02:51:43.916Z,20.10
2022-10-18T02:53:50.435Z,20.04
2022-10-18T02:55:57.179Z,19.96
2022-10-18T02:58:03.581Z,19.89
2022-10-18T03:00:11.155Z,19.82
2022-10-18T03:02:17.460Z,19.74
2022-10-18T03:04:24.103Z,19.66
2022-10-18T03:06:30.202Z,19.57
2022-10-18T03:08:37.801Z,19.50
2022-10-18T03:10:46.857Z,19.43
2022-10-18T03:12:52.963Z,19.36
2022-10-18T03:14:58.942Z,19.29
2022-10-18T03:17:05.222Z,19.23
2022-10-18T03:19:11.533Z,19.19
2022-10-18T03:21:18.097Z,19.14
2022-10-18T03:23:24.488Z,19.10
2022-10-18T03:25:30.618Z,19.04
2022-10-18T03:27:36.710Z,19.00
2022-10-18T03:29:42.885Z,18.96
2022-10-18T03:31:49.748Z,18.92
2022-10-18T03:33:55.710Z,18.88
2022-10-18T03:36:02.052Z,18.82
2022-10-18T03:38:08.125Z,18.76
2022-10-18T03:40:14.109Z,18.71
2022-10-18T03:42:20.712Z,18.66
2022-10-18T03:44:27.248Z,18.62
2022-10-18T03:46:33.431Z,18.57
2022-10-18T03:48:39.697Z,18.51
2022-10-18T03:50:45.648Z,18.45
2022-10-18T03:52:51.837Z,18.39
2022-10-18T03:54:57.935Z,18.33
2022-10-18T03:57:04.073Z,18.29
2022-10-18T03:59:10.167Z,18.25
2022-10-18T04:01:16.659Z,18.20
2022-10-18T04:03:25.157Z,18.15
2022-10-18T04:05:32.464Z,18.11
2022-10-18T04:07:39.062Z,18.07
2022-10-18T04:09:45.495Z,18.03
2022-10-18T04:11:52.491Z,17.98
2022-10-18T04:13:58.979Z,17.93
2022-10-18T04:16:05.163Z,17.87
2022-10-18T04:18:11.509Z,17.82
2022-10-18T04:20:18.079Z,17.77
2022-10-18T04:22:24.512Z,17.72
2022-10-18T04:24:30.531Z,17.66
2022-10-18T04:26:36.667Z,17.62
2022-10-18T04:28:43.495Z,17.59
2022-10-18T04:30:54.572Z,17.55
2022-10-18T04:33:01.141Z,17.51
2022-10-18T04:35:08.875Z,17.48
2022-10-18T04:37:14.983Z,17.46
2022-10-18T04:39:21.430Z,17.42
2022-10-18T04:41:27.662Z,17.40
2022-10-18T04:43:33.773Z,17.36
2022-10-18T04:45:39.856Z,17.32
2022-10-18T04:47:46.360Z,17.28
2022-10-18T04:49:52.518Z,17.22
2022-10-18T04:51:59.068Z,17.19
2022-10-18T04:54:05.234Z,17.15
2022-10-18T04:56:11.891Z,17.10
2022-10-18T04:58:19.422Z,17.06
2022-10-18T05:00:25.586Z,17.02
2022-10-18T05:02:32.125Z,16.98
2022-10-18T05:04:38.400Z,16.94
2022-10-18T05:06:45.078Z,16.88
2022-10-18T05:08:51.572Z,16.82
2022-10-18T05:10:57.872Z,16.77
2022-10-18T05:13:05.207Z,16.73
2022-10-18T05:15:11.768Z,16.69
2022-10-18T05:17:17.909Z,16.65
2022-10-18T05:19:24.203Z,16.61
2022-10-18T05:21:30.192Z,16.57
2022-10-18T05:23:36.420Z,16.56
2022-10-18T05:25:43.897Z,16.53
2022-10-18T05:27:50.544Z,16.51
2022-10-18T05:29:58.943Z,16.48
2022-10-18T05:32:07.716Z,16.45
2022-10-18T05:34:14.842Z,16.43
2022-10-18T05:36:21.303Z,16.40
2022-10-18T05:38:27.815Z,16.36
2022-10-18T05:40:40.005Z,16.32
2022-10-18T05:42:47.248Z,16.30
2022-10-18T05:44:53.944Z,16.28
2022-10-18T05:46:59.964Z,16.25
2022-10-18T05:49:06.620Z,16.23
2022-10-18T05:51:12.897Z,16.21
2022-10-18T05:53:35.750Z,16.18
2022-10-18T05:55:43.182Z,16.18
2022-10-18T05:57:52.469Z,16.17
2022-10-18T05:59:59.323Z,16.15
2022-10-18T06:02:06.030Z,16.14
2022-10-18T06:04:12.346Z,16.11
2022-10-18T06:06:18.906Z,16.08
2022-10-18T06:08:25.502Z,16.05
2022-10-18T06:10:32.077Z,16.04
2022-10-18T06:12:38.153Z,16.04
2022-10-18T06:14:45.480Z,16.03
2022-10-18T06:16:51.930Z,16.01
2022-10-18T06:19:00.935Z,16.00
2022-10-18T06:21:07.841Z,15.96
2022-10-18T06:23:13.960Z,15.92
2022-10-18T06:25:19.888Z,15.89
2022-10-18T06:27:25.970Z,15.87
2022-10-18T06:29:32.549Z,15.86
2022-10-18T06:31:38.686Z,15.84
2022-10-18T06:33:46.719Z,15.81
2022-10-18T06:35:58.087Z,15.77
2022-10-18T06:38:04.320Z,15.74
2022-10-18T06:40:11.391Z,15.70
2022-10-18T06:42:19.175Z,15.67
2022-10-18T06:44:28.108Z,15.64
2022-10-18T06:46:35.008Z,15.61
2022-10-18T06:48:42.433Z,15.57
2022-10-18T06:51:03.199Z,15.54
2022-10-18T06:53:10.089Z,15.51
2022-10-18T06:55:16.509Z,15.49
2022-10-18T06:57:23.595Z,15.48
2022-10-18T06:59:32.726Z,15.46
2022-10-18T07:01:41.005Z,15.45
2022-10-18T07:03:49.027Z,15.43
2022-10-18T07:05:55.287Z,15.40
2022-10-18T07:08:01.441Z,15.38
2022-10-18T07:10:11.185Z,15.34
2022-10-18T07:12:19.935Z,15.30
2022-10-18T07:14:29.019Z,15.28
2022-10-18T07:16:36.296Z,15.25
2022-10-18T07:18:44.988Z,15.22
2022-10-18T07:20:50.961Z,15.19
2022-10-18T07:23:00.655Z,15.17
2022-10-18T07:25:08.181Z,15.15
2022-10-18T07:27:15.126Z,15.12
2022-10-18T07:29:21.892Z,15.11
2022-10-18T07:31:28.960Z,15.09
2022-10-18T07:33:36.630Z,15.04
2022-10-18T07:35:43.009Z,15.01
2022-10-18T07:37:49.700Z,14.98
2022-10-18T07:39:56.386Z,14.95
2022-10-18T07:42:02.436Z,14.93
2022-10-18T07:44:09.415Z,14.91
2022-10-18T07:46:16.641Z,14.90
2022-10-18T07:48:23.629Z,14.86
2022-10-18T07:50:29.716Z,14.82
2022-10-18T07:52:35.880Z,14.80
2022-10-18T07:54:42.177Z,14.79
2022-10-18T07:56:48.564Z,14.77
2022-10-18T07:58:56.850Z,14.75
2022-10-18T08:01:08.385Z,14.74
2022-10-18T08:03:14.784Z,14.71
2022-10-18T08:05:21.055Z,14.70
2022-10-18T08:07:27.437Z,14.68
2022-10-18T08:09:34.046Z,14.65
2022-10-18T08:11:40.690Z,14.61
2022-10-18T08:13:47.008Z,14.58
2022-10-18T08:16:00.763Z,14.54
2022-10-18T08:18:07.089Z,14.51
2022-10-18T08:20:29.872Z,14.48
2022-10-18T08:22:36.799Z,14.46
2022-10-18T08:24:43.032Z,14.45
2022-10-18T08:26:51.519Z,14.44
2022-10-18T08:29:21.155Z,14.42
2022-10-18T08:31:24.165Z,14.39
2022-10-18T08:33:30.437Z,14.34
2022-10-18T08:35:37.170Z,14.30
2022-10-18T08:37:43.708Z,14.23
2022-10-18T08:39:49.991Z,14.19
2022-10-18T08:42:23.721Z,14.15
2022-10-18T08:44:33.197Z,14.09
2022-10-18T08:46:45.686Z,14.03
2022-10-18T08:48:56.506Z,13.97
2022-10-18T08:51:05.460Z,13.91
2022-10-18T08:53:25.980Z,13.85
2022-10-18T08:55:48.312Z,13.80
2022-10-18T08:57:54.733Z,13.75
2022-10-18T09:00:01.003Z,13.70
2022-10-18T09:02:28.356Z,13.64
2022-10-18T09:04:59.125Z,13.57
2022-10-18T09:07:40.067Z,13.51
2022-10-18T09:09:46.184Z,13.45
2022-10-18T09:12:04.094Z,13.42
2022-10-18T09:14:19.403Z,13.38
2022-10-18T09:16:47.088Z,13.37
2022-10-18T09:19:22.795Z,13.35
2022-10-18T09:21:59.923Z,13.33
2022-10-18T09:24:22.196Z,13.30
2022-10-18T09:26:28.102Z,13.26
2022-10-18T09:29:12.080Z,13.21
2022-10-18T09:31:25.795Z,13.15
2022-10-18T09:33:52.775Z,13.10
2022-10-18T09:36:03.269Z,13.06
2022-10-18T09:38:14.487Z,13.02
2022-10-18T09:40:45.043Z,12.98
2022-10-18T09:43:01.709Z,12.92
2022-10-18T09:45:16.971Z,12.88
2022-10-18T09:48:09.693Z,12.85
2022-10-18T09:50:31.608Z,12.84
2022-10-18T09:52:50.823Z,12.80
2022-10-18T09:55:04.810Z,12.77
2022-10-18T09:57:29.396Z,12.75
2022-10-18T09:59:48.431Z,12.73
2022-10-18T10:01:54.774Z,12.69
2022-10-18T10:04:00.942Z,12.67
2022-10-18T10:06:18.044Z,12.64
2022-10-18T10:08:36.243Z,12.62
2022-10-18T10:10:49.136Z,12.58
2022-10-18T10:13:08.632Z,12.56
2022-10-18T10:15:29.688Z,12.53
2022-10-18T10:17:39.965Z,12.50
2022-10-18T10:20:06.409Z,12.47
2022-10-18T10:22:15.791Z,12.43
2022-10-18T10:24:46.302Z,12.38
2022-10-18T10:27:00.102Z,12.37
2022-10-18T10:29:45.084Z,12.36
2022-10-18T10:32:04.753Z,12.34
2022-10-18T10:34:16.706Z,12.33
2022-10-18T10:36:23.236Z,12.33
2022-10-18T10:38:31.694Z,12.33
2022-10-18T10:40:51.479Z,12.33
2022-10-18T10:43:18.454Z,12.32
2022-10-18T10:45:56.544Z,12.31
2022-10-18T10:48:15.634Z,12.32
2022-10-18T10:50:30.127Z,12.32
2022-10-18T10:52:36.716Z,12.33
2022-10-18T10:54:51.345Z,12.35
2022-10-18T10:57:02.710Z,12.37
2022-10-18T10:59:10.652Z,12.38
2022-10-18T11:01:32.856Z,12.39
2022-10-18T11:03:38.544Z,12.39
2022-10-18T11:05:47.508Z,12.41
2022-10-18T11:08:06.831Z,12.41
2022-10-18T11:10:13.401Z,12.43
2022-10-18T11:12:26.223Z,12.43
2022-10-18T11:14:40.429Z,12.43
2022-10-18T11:17:10.626Z,12.45
2022-10-18T11:19:40.486Z,12.47
2022-10-18T11:21:46.971Z,12.48
2022-10-18T11:23:54.123Z,12.50
2022-10-18T11:26:15.330Z,12.52
2022-10-18T11:28:47.675Z,12.53
2022-10-18T11:31:16.283Z,12.55
2022-10-18T11:34:08.133Z,12.56
2022-10-18T11:36:50.397Z,12.57
2022-10-18T11:39:51.980Z,12.57
2022-10-18T11:42:04.481Z,12.57
2022-10-18T11:44:41.714Z,12.56
2022-10-18T11:47:07.122Z,12.55
2022-10-18T11:49:50.212Z,12.54
2022-10-18T11:52:30.947Z,12.54
2022-10-18T11:55:07.897Z,12.53
2022-10-18T11:57:25.836Z,12.52
2022-10-18T11:59:57.834Z,12.51
2022-10-18T12:02:18.668Z,12.49
2022-10-18T12:04:35.289Z,12.48
2022-10-18T12:06:44.561Z,12.45
2022-10-18T12:09:05.085Z,12.44
2022-10-18T12:11:23.901Z,12.42
2022-10-18T12:13:36.411Z,12.42
2022-10-18T12:15:42.816Z,12.40
2022-10-18T12:17:54.578Z,12.38
2022-10-18T12:20:09.343Z,12.35
2022-10-18T12:22:36.245Z,12.34
2022-10-18T12:24:43.947Z,12.33
2022-10-18T12:26:53.226Z,12.33
2022-10-18T12:28:59.699Z,12.31
2022-10-18T12:31:15.486Z,12.28
2022-10-18T12:33:28.840Z,12.24
2022-10-18T12:36:02.144Z,12.21
2022-10-18T12:38:39.376Z,12.18
2022-10-18T12:40:50.564Z,12.14
2022-10-18T12:42:57.901Z,12.11
2022-10-18T12:45:21.818Z,12.08
2022-10-18T12:47:29.605Z,12.06
2022-10-18T12:49:41.350Z,12.03
2022-10-18T12:51:56.765Z,11.99
2022-10-18T12:54:02.736Z,11.98
2022-10-18T12:56:42.895Z,11.96
2022-10-18T12:58:49.085Z,11.94
2022-10-18T13:00:57.547Z,11.91
2022-10-18T13:03:21.757Z,11.88
2022-10-18T13:05:54.537Z,11.85
2022-10-18T13:08:30.272Z,11.83
2022-10-18T13:10:39.124Z,11.79
2022-10-18T13:13:39.167Z,11.80
2022-10-18T13:15:50.688Z,11.76
2022-10-18T13:17:56.618Z,11.72
2022-10-18T13:20:26.654Z,11.70
2022-10-18T13:23:03.026Z,11.67
2022-10-18T13:26:06.718Z,11.64
2022-10-18T13:28:43.829Z,11.61
2022-10-18T13:31:11.785Z,11.58
2022-10-18T13:33:31.961Z,11.58
2022-10-18T13:35:53.321Z,11.56
2022-10-18T13:38:21.738Z,11.57
2022-10-18T13:40:27.927Z,11.55
2022-10-18T13:42:35.110Z,11.53
2022-10-18T13:44:43.028Z,11.52
2022-10-18T13:46:49.365Z,11.52
2022-10-18T13:49:01.806Z,11.52
2022-10-18T13:51:46.381Z,11.51
2022-10-18T13:54:30.587Z,11.50
2022-10-18T13:56:54.489Z,11.48
2022-10-18T13:59:20.102Z,11.47
2022-10-18T14:01:42.659Z,11.46
2022-10-18T14:04:01.110Z,11.47
2022-10-18T14:06:26.676Z,11.48
2022-10-18T14:08:35.689Z,11.48
2022-10-18T14:11:02.073Z,11.48
2022-10-18T14:13:20.006Z,11.47
2022-10-18T14:15:30.707Z,11.46
2022-10-18T14:18:01.435Z,11.46
2022-10-18T14:20:24.749Z,11.45
2022-10-18T14:22:42.815Z,11.44
2022-10-18T14:24:55.285Z,11.42
2022-10-18T14:27:24.271Z,11.40
2022-10-18T14:29:31.004Z,11.40
2022-10-18T14:31:37.202Z,11.40
2022-10-18T14:33:57.203Z,11.40
2022-10-18T14:36:36.317Z,11.41
2022-10-18T14:38:51.378Z,11.42
2022-10-18T14:41:09.031Z,11.43
2022-10-18T14:43:20.055Z,11.43
2022-10-18T14:45:26.412Z,11.45
2022-10-18T14:47:35.027Z,11.47
2022-10-18T14:49:46.518Z,11.48
2022-10-18T14:51:58.090Z,11.50
2022-10-18T14:54:04.913Z,11.51
2022-10-18T14:56:24.136Z,11.53
2022-10-18T14:58:30.495Z,11.55
2022-10-18T15:00:40.431Z,11.57
2022-10-18T15:02:48.982Z,11.60
2022-10-18T15:05:08.631Z,11.62
2022-10-18T15:07:18.405Z,11.67
2022-10-18T15:09:25.484Z,11.70
2022-10-18T15:11:33.014Z,11.72
2022-10-18T15:14:04.226Z,11.75
2022-10-18T15:16:19.591Z,11.78
2022-10-18T15:18:27.763Z,11.80
2022-10-18T15:20:40.434Z,11.82
2022-10-18T15:22:50.031Z,11.84
2022-10-18T15:25:32.327Z,11.86
2022-10-18T15:29:46.860Z,11.89
2022-10-18T15:31:53.995Z,11.91
2022-10-18T15:34:29.325Z,11.92
2022-10-18T15:36:37.025Z,11.94
2022-10-18T15:38:46.300Z,11.97
2022-10-18T15:40:56.006Z,12.00
2022-10-18T15:43:05.402Z,12.02
2022-10-18T15:45:26.986Z,12.05
2022-10-18T15:47:33.400Z,12.08
2022-10-18T15:49:48.435Z,12.07
2022-10-18T15:52:23.650Z,12.07
2022-10-18T15:54:33.570Z,12.08
2022-10-18T15:56:47.501Z,12.04
2022-10-18T15:58:53.871Z,12.08
2022-10-18T16:01:02.984Z,12.07
2022-10-18T16:03:10.604Z,12.05
2022-10-18T16:05:22.188Z,12.03
2022-10-18T16:07:28.558Z,12.02
2022-10-18T16:09:34.679Z,11.97
2022-10-18T16:11:40.855Z,11.99
2022-10-18T16:13:47.628Z,11.98
2022-10-18T16:15:56.764Z,12.01
2022-10-18T16:18:03.203Z,12.02
2022-10-18T16:20:21.699Z,12.04
2022-10-18T16:22:27.751Z,11.99
2022-10-18T16:24:34.294Z,12.01
2022-10-18T16:26:40.374Z,12.01
2022-10-18T16:28:47.972Z,12.00
2022-10-18T16:30:55.953Z,11.99
2022-10-18T16:33:01.859Z,11.97
2022-10-18T16:35:09.413Z,11.95
2022-10-18T16:37:15.639Z,11.95
2022-10-18T16:39:23.534Z,11.94
2022-10-18T16:41:30.490Z,11.97
2022-10-18T16:43:37.127Z,11.99
2022-10-18T16:45:43.892Z,12.02
2022-10-18T16:47:49.868Z,12.02
2022-10-18T16:49:56.070Z,12.05
2022-10-18T16:52:02.206Z,12.06
2022-10-18T16:54:08.311Z,12.11
2022-10-18T16:56:31.933Z,12.15
2022-10-18T16:58:38.009Z,12.17
2022-10-18T17:00:44.166Z,12.21
2022-10-18T17:02:51.587Z,12.27
2022-10-18T17:04:58.197Z,12.34
2022-10-18T17:07:06.118Z,12.42
2022-10-18T17:09:15.753Z,12.47
2022-10-18T17:11:24.169Z,12.53
2022-10-18T17:13:30.289Z,12.59
2022-10-18T17:15:36.762Z,12.65
2022-10-18T17:17:43.011Z,12.70
2022-10-18T17:19:49.162Z,12.75
2022-10-18T17:21:58.898Z,12.81
2022-10-18T17:24:08.322Z,12.85
2022-10-18T17:26:28.749Z,12.88
2022-10-18T17:28:35.745Z,12.93
2022-10-18T17:30:43.085Z,12.97
2022-10-18T17:32:49.508Z,13.02
2022-10-18T17:34:56.062Z,13.08
2022-10-18T17:37:02.138Z,13.16
2022-10-18T17:39:08.912Z,13.24
2022-10-18T17:41:15.460Z,13.35
2022-10-18T17:43:21.620Z,13.45
2022-10-18T17:45:28.074Z,13.52
2022-10-18T17:47:34.356Z,13.58
2022-10-18T17:49:40.522Z,13.64
2022-10-18T17:51:47.467Z,13.71
2022-10-18T17:53:53.566Z,13.80
2022-10-18T17:56:02.588Z,13.91
2022-10-18T17:58:09.196Z,14.07
2022-10-18T18:00:16.642Z,14.32
2022-10-18T18:02:22.984Z,14.61
2022-10-18T18:04:29.153Z,14.80
2022-10-18T18:06:38.023Z,14.95
2022-10-18T18:08:44.363Z,15.10
2022-10-18T18:10:56.593Z,15.21
2022-10-18T18:13:03.914Z,15.34
2022-10-18T18:15:10.395Z,15.48
2022-10-18T18:17:24.801Z,15.63
2022-10-18T18:19:40.801Z,15.77
2022-10-18T18:21:47.423Z,15.89
2022-10-18T18:23:53.948Z,16.08
2022-10-18T18:26:00.164Z,16.23
2022-10-18T18:28:07.613Z,16.33
2022-10-18T18:30:14.080Z,16.41
2022-10-18T18:32:20.851Z,16.47
2022-10-18T18:34:27.605Z,16.52
2022-10-18T18:36:34.201Z,16.55
2022-10-18T18:38:43.608Z,16.58
2022-10-18T18:40:50.386Z,16.65
2022-10-18T18:43:07.182Z,16.71
2022-10-18T18:45:23.807Z,16.75
2022-10-18T18:47:30.345Z,16.77
2022-10-18T18:49:37.004Z,16.77
2022-10-18T18:51:43.950Z,16.79
2022-10-18T18:53:50.602Z,16.85
2022-10-18T18:56:01.784Z,16.88
2022-10-18T18:58:08.178Z,16.91
2022-10-18T19:00:15.119Z,16.92
2022-10-18T19:02:21.517Z,16.93
2022-10-18T19:04:27.966Z,16.95
2022-10-18T19:06:45.297Z,17.06
2022-10-18T19:08:55.236Z,17.19
2022-10-18T19:11:01.732Z,17.40
2022-10-18T19:13:08.392Z,17.66
2022-10-18T19:15:14.494Z,17.94
2022-10-18T19:17:22.768Z,18.20
2022-10-18T19:19:31.758Z,18.48
2022-10-18T19:21:43.094Z,18.74
2022-10-18T19:23:49.749Z,18.97
2022-10-18T19:25:56.098Z,19.18
2022-10-18T19:28:02.689Z,19.41
2022-10-18T19:30:13.673Z,19.59
2022-10-18T19:32:20.315Z,19.76
2022-10-18T19:34:28.700Z,19.97
2022-10-18T19:36:35.749Z,20.17
2022-10-18T19:38:42.062Z,20.33
2022-10-18T19:40:51.591Z,20.47
2022-10-18T19:43:00.196Z,20.57
2022-10-18T19:45:07.003Z,20.65
2022-10-18T19:47:15.394Z,20.73
2022-10-18T19:49:21.657Z,20.84
2022-10-18T19:51:28.644Z,20.94
2022-10-18T19:53:35.905Z,21.09
2022-10-18T19:55:42.483Z,21.20
2022-10-18T19:57:49.181Z,21.29
2022-10-18T19:59:56.679Z,21.37
2022-10-18T20:02:05.591Z,21.45
2022-10-18T20:04:13.459Z,21.55
2022-10-18T20:06:20.630Z,21.66
2022-10-18T20:08:28.833Z,21.79
2022-10-18T20:10:35.454Z,21.86
2022-10-18T20:12:41.485Z,21.94
2022-10-18T20:14:47.703Z,22.05
2022-10-18T20:16:54.524Z,22.14
2022-10-18T20:19:03.320Z,22.19
2022-10-18T20:21:10.714Z,22.17
2022-10-18T20:23:18.188Z,22.23
2022-10-18T20:25:24.795Z,22.22
2022-10-18T20:27:33.150Z,22.20
2022-10-18T20:29:39.651Z,22.21
2022-10-18T20:31:45.695Z,22.19
2022-10-18T20:34:06.629Z,22.17
2022-10-18T20:36:18.676Z,22.16
2022-10-18T20:38:24.802Z,22.17
2022-10-18T20:40:30.860Z,22.21
2022-10-18T20:42:36.997Z,22.29
2022-10-18T20:44:44.557Z,22.38
2022-10-18T20:46:51.200Z,22.42
2022-10-18T20:48:58.130Z,22.45
2022-10-18T20:51:10.306Z,22.37
2022-10-18T20:53:17.374Z,22.29
2022-10-18T20:55:24.491Z,22.18
2022-10-18T20:57:34.275Z,22.11
2022-10-18T20:59:43.553Z,22.10
2022-10-18T21:01:49.945Z,22.15
2022-10-18T21:03:58.580Z,22.20
2022-10-18T21:06:10.502Z,22.28
2022-10-18T21:08:17.216Z,22.32
2022-10-18T21:10:24.769Z,22.40
2022-10-18T21:12:31.415Z,22.49
2022-10-18T21:14:37.527Z,22.52
2022-10-18T21:16:44.815Z,22.54
2022-10-18T21:18:51.249Z,22.58
2022-10-18T21:21:08.010Z,22.65
2022-10-18T21:23:14.117Z,22.75
2022-10-18T21:25:20.494Z,22.86
2022-10-18T21:27:26.617Z,22.92
2022-10-18T21:29:32.565Z,23.01
2022-10-18T21:31:40.923Z,23.14
2022-10-18T21:33:48.580Z,23.20
2022-10-18T21:35:54.751Z,23.22
2022-10-18T21:38:01.018Z,23.26
2022-10-18T21:40:07.756Z,23.32
2022-10-18T21:42:14.887Z,23.39
2022-10-18T21:44:21.403Z,23.45
2022-10-18T21:46:28.158Z,23.50
2022-10-18T21:48:34.258Z,23.55
2022-10-18T21:50:40.753Z,23.56
2022-10-18T21:52:47.598Z,23.57
2022-10-18T21:54:54.752Z,23.56
2022-10-18T21:57:00.843Z,23.53
2022-10-18T21:59:07.283Z,23.49
2022-10-18T22:01:22.231Z,23.47
2022-10-18T22:03:28.538Z,23.44
2022-10-18T22:05:34.792Z,23.44
2022-10-18T22:07:41.167Z,23.38
2022-10-18T22:09:47.501Z,23.35
2022-10-18T22:11:55.418Z,23.33
2022-10-18T22:14:01.934Z,23.25
2022-10-18T22:16:09.588Z,23.18
2022-10-18T22:18:15.667Z,23.18
2022-10-18T22:20:22.811Z,23.22
2022-10-18T22:22:29.688Z,23.27
2022-10-18T22:26:48.360Z,23.28
2022-10-18T22:29:04.261Z,23.30
2022-10-18T22:31:23.941Z,23.31
2022-10-18T22:33:31.142Z,23.34
2022-10-18T22:35:37.281Z,23.35
2022-10-18T22:37:43.508Z,23.34
2022-10-18T22:39:49.716Z,23.34
2022-10-18T22:41:57.815Z,23.36
2022-10-18T22:44:04.430Z,23.40
2022-10-18T22:46:16.244Z,23.39
2022-10-18T22:48:22.625Z,23.43
2022-10-18T22:50:29.012Z,23.47
2022-10-18T22:52:36.341Z,23.49
2022-10-18T22:54:43.548Z,23.49
2022-10-18T22:56:50.623Z,23.46
2022-10-18T22:58:57.966Z,23.44
2022-10-18T23:01:12.098Z,23.44
2022-10-18T23:03:20.131Z,23.47
2022-10-18T23:05:27.232Z,23.49
2022-10-18T23:07:33.436Z,23.48
2022-10-18T23:11:54.435Z,23.47
2022-10-18T23:14:02.192Z,23.48
2022-10-18T23:16:08.945Z,23.48
2022-10-18T23:18:15.551Z,23.47
2022-10-18T23:21:14.325Z,23.46
2022-10-18T23:23:46.028Z,23.42
2022-10-18T23:25:55.812Z,23.39
2022-10-18T23:28:06.788Z,23.38
2022-10-18T23:30:13.907Z,23.35
2022-10-18T23:32:21.461Z,23.35
2022-10-18T23:34:30.263Z,23.31
2022-10-18T23:36:40.391Z,23.31
2022-10-18T23:38:48.289Z,23.27
2022-10-18T23:40:55.673Z,23.29
2022-10-18T23:43:02.825Z,23.29
2022-10-18T23:45:12.065Z,23.30
2022-10-18T23:47:19.974Z,23.29
2022-10-18T23:49:29.337Z,23.27
2022-10-18T23:51:36.245Z,23.27
2022-10-18T23:53:43.226Z,23.25
2022-10-18T23:56:06.876Z,23.23
2022-10-18T23:58:14.097Z,23.21
